createdAt,value
2019-02-17T00:00:51.471Z,4.23
2019-02-17T00:03:54.671Z,4.07
2019-02-17T00:06:57.903Z,3.93
2019-02-17T00:10:01.047Z,3.90
2019-02-17T00:13:04.139Z,3.84
2019-02-17T00:16:07.244Z,3.89
2019-02-17T00:19:10.514Z,3.96
2019-02-17T00:22:13.635Z,4.02
2019-02-17T00:25:16.847Z,4.00
2019-02-17T00:28:20.114Z,3.95
2019-02-17T00:31:23.360Z,3.80
2019-02-17T00:34:26.595Z,3.63
2019-02-17T00:37:29.755Z,3.53
2019-02-17T00:40:32.936Z,3.50
2019-02-17T00:43:36.189Z,3.56
2019-02-17T00:46:39.283Z,3.56
2019-02-17T00:49:42.498Z,3.57
2019-02-17T00:52:45.731Z,3.57
2019-02-17T00:55:48.916Z,3.44
2019-02-17T00:58:52.082Z,3.45
2019-02-17T01:01:55.275Z,3.37
2019-02-17T01:04:58.367Z,3.31
2019-02-17T01:08:01.451Z,3.29
2019-02-17T01:11:04.638Z,3.32
2019-02-17T01:14:07.759Z,3.40
2019-02-17T01:17:10.959Z,3.46
2019-02-17T01:20:14.117Z,3.57
2019-02-17T01:23:17.304Z,3.54
2019-02-17T01:26:20.393Z,3.55
2019-02-17T01:29:23.500Z,3.64
2019-02-17T01:32:26.682Z,3.60
2019-02-17T01:35:29.890Z,3.68
2019-02-17T01:38:33.115Z,3.70
2019-02-17T01:41:36.223Z,3.78
2019-02-17T01:44:39.367Z,3.83
2019-02-17T01:47:42.569Z,3.84
2019-02-17T01:50:45.743Z,3.86
2019-02-17T01:53:48.874Z,3.81
2019-02-17T01:56:52.043Z,3.81
2019-02-17T01:59:55.231Z,3.83
2019-02-17T02:02:58.339Z,3.85
2019-02-17T02:06:01.522Z,3.82
2019-02-17T02:09:06.559Z,3.80
2019-02-17T02:12:09.785Z,3.77
2019-02-17T02:15:12.974Z,3.80
2019-02-17T02:18:16.134Z,3.82
2019-02-17T02:21:19.339Z,3.80
2019-02-17T02:24:22.543Z,3.72
2019-02-17T02:27:25.726Z,3.67
2019-02-17T02:30:28.924Z,3.71
2019-02-17T02:33:32.024Z,3.69
2019-02-17T02:36:35.221Z,3.63
2019-02-17T02:39:38.332Z,3.54
2019-02-17T02:42:41.488Z,3.50
2019-02-17T02:45:44.684Z,3.52
2019-02-17T02:48:47.781Z,3.40
2019-02-17T02:51:50.985Z,3.44
2019-02-17T02:54:54.197Z,3.35
2019-02-17T02:57:57.822Z,3.43
2019-02-17T03:01:00.979Z,3.35
2019-02-17T03:04:04.161Z,3.35
2019-02-17T03:07:10.472Z,3.35
2019-02-17T03:10:13.611Z,3.34
2019-02-17T03:13:16.835Z,3.28
2019-02-17T03:16:20.026Z,3.33
2019-02-17T03:19:23.095Z,3.30
2019-02-17T03:22:26.280Z,3.27
2019-02-17T03:25:29.475Z,3.18
2019-02-17T03:28:32.583Z,3.25
2019-02-17T03:31:35.800Z,3.14
2019-02-17T03:34:38.887Z,3.24
2019-02-17T03:37:42.072Z,3.26
2019-02-17T03:40:45.261Z,3.28
2019-02-17T03:43:48.455Z,3.24
2019-02-17T03:46:51.634Z,3.20
2019-02-17T03:49:54.794Z,3.09
2019-02-17T03:52:57.939Z,3.06
2019-02-17T03:56:01.149Z,2.98
2019-02-17T03:59:04.331Z,2.97
2019-02-17T04:02:07.522Z,2.93
2019-02-17T04:05:10.690Z,2.92
2019-02-17T04:08:13.911Z,3.02
2019-02-17T04:11:17.149Z,2.94
2019-02-17T04:14:20.288Z,2.93
2019-02-17T04:17:23.488Z,2.94
2019-02-17T04:20:26.574Z,2.94
2019-02-17T04:23:31.539Z,2.94
2019-02-17T04:26:32.874Z,3.00
2019-02-17T04:29:36.058Z,3.00
2019-02-17T04:32:39.278Z,3.03
2019-02-17T04:35:42.417Z,3.07
2019-02-17T04:38:45.531Z,3.03
2019-02-17T04:41:48.708Z,3.04
2019-02-17T04:44:51.829Z,3.07
2019-02-17T04:47:55.003Z,3.08
2019-02-17T04:50:58.130Z,3.07
2019-02-17T04:54:01.316Z,2.99
2019-02-17T04:57:04.546Z,3.01
2019-02-17T05:00:08.018Z,3.09
2019-02-17T05:03:11.205Z,3.21
2019-02-17T05:06:14.376Z,3.06
2019-02-17T05:09:17.503Z,3.03
2019-02-17T05:12:20.688Z,3.03
2019-02-17T05:15:23.874Z,3.06
2019-02-17T05:18:27.081Z,3.06
2019-02-17T05:21:30.256Z,3.03
2019-02-17T05:24:33.443Z,3.09
2019-02-17T05:27:36.630Z,2.97
2019-02-17T05:30:51.763Z,2.95
2019-02-17T05:33:42.936Z,2.89
2019-02-17T05:36:46.055Z,2.74
2019-02-17T05:39:49.201Z,2.73
2019-02-17T05:42:52.424Z,2.75
2019-02-17T05:45:55.615Z,2.73
2019-02-17T05:48:58.703Z,2.76
2019-02-17T05:52:01.888Z,2.68
2019-02-17T05:55:05.434Z,2.68
2019-02-17T05:58:08.628Z,2.64
2019-02-17T06:01:17.372Z,2.76
2019-02-17T06:04:20.499Z,2.62
2019-02-17T06:07:23.703Z,2.67
2019-02-17T06:10:26.887Z,2.64
2019-02-17T06:13:30.212Z,2.55
2019-02-17T06:16:33.374Z,2.57
2019-02-17T06:19:36.556Z,2.49
2019-02-17T06:22:39.954Z,2.33
2019-02-17T06:25:43.100Z,2.33
2019-02-17T06:28:46.255Z,2.34
2019-02-17T06:31:49.467Z,2.40
2019-02-17T06:34:52.673Z,2.28
2019-02-17T06:37:55.831Z,2.38
2019-02-17T06:40:58.903Z,2.41
2019-02-17T06:44:02.037Z,2.50
2019-02-17T06:47:06.848Z,2.54
2019-02-17T06:50:10.257Z,2.68
2019-02-17T06:53:13.531Z,2.71
2019-02-17T06:56:21.835Z,2.76
2019-02-17T06:59:24.939Z,2.75
2019-02-17T07:02:28.024Z,2.76
2019-02-17T07:05:39.642Z,2.76
2019-02-17T07:08:42.739Z,2.83
2019-02-17T07:11:45.988Z,2.96
2019-02-17T07:14:49.159Z,3.00
2019-02-17T07:17:52.305Z,3.11
2019-02-17T07:20:55.554Z,3.12
2019-02-17T07:23:58.715Z,3.28
2019-02-17T07:27:01.963Z,3.46
2019-02-17T07:30:05.246Z,3.49
2019-02-17T07:33:08.401Z,3.64
2019-02-17T07:36:11.597Z,3.68
2019-02-17T07:39:14.856Z,3.85
2019-02-17T07:42:18.011Z,3.99
2019-02-17T07:45:21.224Z,4.15
2019-02-17T07:48:24.349Z,4.22
2019-02-17T07:51:27.549Z,4.34
2019-02-17T07:54:30.639Z,4.40
2019-02-17T07:57:33.835Z,4.44
2019-02-17T08:00:36.939Z,4.54
2019-02-17T08:03:40.143Z,4.70
2019-02-17T08:06:43.245Z,4.87
2019-02-17T08:09:46.429Z,5.07
2019-02-17T08:12:49.613Z,5.18
2019-02-17T08:15:52.792Z,5.37
2019-02-17T08:18:56.007Z,5.51
2019-02-17T08:21:59.100Z,5.66
2019-02-17T08:25:02.274Z,5.88
2019-02-17T08:28:05.359Z,6.16
2019-02-17T08:31:08.461Z,6.19
2019-02-17T08:34:11.577Z,6.43
2019-02-17T08:37:14.752Z,6.61
2019-02-17T08:40:17.998Z,6.67
2019-02-17T08:43:21.434Z,6.66
2019-02-17T08:46:24.531Z,6.72
2019-02-17T08:49:27.637Z,6.82
2019-02-17T08:52:30.827Z,6.89
2019-02-17T08:55:34.011Z,6.88
2019-02-17T08:58:37.207Z,6.98
2019-02-17T09:01:40.551Z,7.16
2019-02-17T09:04:43.611Z,7.19
2019-02-17T09:07:46.816Z,7.34
2019-02-17T09:10:49.990Z,7.59
2019-02-17T09:13:53.198Z,7.65
2019-02-17T09:16:56.292Z,7.76
2019-02-17T09:19:59.484Z,7.84
2019-02-17T09:23:02.640Z,7.96
2019-02-17T09:26:05.859Z,8.08
2019-02-17T09:29:09.071Z,8.21
2019-02-17T09:32:16.217Z,8.23
2019-02-17T09:35:15.466Z,8.23
2019-02-17T09:38:18.649Z,8.26
2019-02-17T09:41:21.834Z,8.47
2019-02-17T09:44:25.068Z,8.67
2019-02-17T09:47:28.267Z,8.88
2019-02-17T09:50:31.454Z,9.07
2019-02-17T09:53:34.613Z,9.11
2019-02-17T09:56:37.869Z,9.43
2019-02-17T09:59:41.029Z,9.44
2019-02-17T10:02:44.203Z,9.56
2019-02-17T10:05:47.398Z,9.80
2019-02-17T10:08:50.571Z,9.83
2019-02-17T10:11:53.791Z,9.92
2019-02-17T10:14:56.958Z,10.02
2019-02-17T10:18:00.059Z,10.07
2019-02-17T10:21:03.252Z,10.24
2019-02-17T10:24:06.349Z,10.28
2019-02-17T10:27:09.529Z,10.59
2019-02-17T10:30:12.895Z,10.94
2019-02-17T10:33:15.979Z,10.94
2019-02-17T10:36:19.133Z,11.15
2019-02-17T10:39:22.207Z,11.30
2019-02-17T10:42:25.420Z,11.56
2019-02-17T10:45:28.603Z,11.71
2019-02-17T10:48:31.687Z,11.88
2019-02-17T10:51:34.899Z,12.01
2019-02-17T10:54:37.998Z,12.19
2019-02-17T10:57:41.203Z,12.32
2019-02-17T11:00:44.398Z,12.53
2019-02-17T11:03:59.892Z,12.77
2019-02-17T11:07:03.021Z,12.96
2019-02-17T11:10:06.714Z,13.04
2019-02-17T11:13:09.851Z,13.03
2019-02-17T11:16:13.051Z,13.19
2019-02-17T11:19:16.239Z,13.37
2019-02-17T11:22:23.125Z,13.26
2019-02-17T11:25:22.680Z,13.59
2019-02-17T11:28:25.831Z,13.90
2019-02-17T11:31:29.035Z,14.02
2019-02-17T11:34:32.243Z,14.07
2019-02-17T11:37:35.404Z,14.35
2019-02-17T11:40:38.649Z,14.17
2019-02-17T11:43:41.808Z,14.23
2019-02-17T11:46:44.912Z,14.44
2019-02-17T11:49:48.095Z,14.42
2019-02-17T11:52:51.265Z,14.34
2019-02-17T11:55:54.410Z,14.56
2019-02-17T11:58:57.595Z,14.60
2019-02-17T12:02:00.769Z,14.56
2019-02-17T12:05:04.032Z,14.69
2019-02-17T12:08:07.194Z,14.87
2019-02-17T12:11:10.364Z,15.20
2019-02-17T12:14:13.591Z,15.25
2019-02-17T12:17:16.757Z,15.45
2019-02-17T12:22:32.400Z,15.59
2019-02-17T12:25:40.694Z,15.93
2019-02-17T12:28:49.503Z,15.89
2019-02-17T12:31:52.723Z,16.00
2019-02-17T12:34:55.901Z,16.23
2019-02-17T12:37:59.086Z,16.42
2019-02-17T12:41:02.153Z,16.56
2019-02-17T12:44:05.403Z,16.50
2019-02-17T12:47:08.577Z,16.64
2019-02-17T12:50:12.346Z,16.78
2019-02-17T12:53:15.425Z,16.85
2019-02-17T12:56:18.575Z,17.19
2019-02-17T12:59:21.731Z,17.54
2019-02-17T13:02:24.951Z,17.70
2019-02-17T13:05:28.077Z,17.86
2019-02-17T13:08:31.228Z,17.85
2019-02-17T13:11:34.303Z,18.00
2019-02-17T13:14:37.409Z,17.99
2019-02-17T13:17:40.602Z,18.15
2019-02-17T13:20:43.841Z,18.22
2019-02-17T13:23:47.299Z,18.46
2019-02-17T13:26:50.498Z,18.41
2019-02-17T13:29:53.699Z,18.23
2019-02-17T13:32:56.872Z,18.38
2019-02-17T13:36:00.027Z,18.45
2019-02-17T13:39:03.172Z,18.49
2019-02-17T13:42:06.315Z,18.59
2019-02-17T13:45:10.848Z,18.42
2019-02-17T13:48:13.969Z,18.73
2019-02-17T13:51:17.054Z,18.97
2019-02-17T13:54:20.284Z,19.22
2019-02-17T13:57:23.370Z,19.24
2019-02-17T14:00:26.548Z,19.15
2019-02-17T14:03:29.668Z,19.21
2019-02-17T14:06:32.824Z,19.37
2019-02-17T14:09:35.944Z,19.38
2019-02-17T14:12:39.111Z,19.10
2019-02-17T14:15:42.241Z,19.24
2019-02-17T14:18:45.415Z,19.26
2019-02-17T14:21:48.639Z,19.11
2019-02-17T14:24:51.822Z,19.27
2019-02-17T14:27:55.012Z,19.09
2019-02-17T14:30:58.107Z,19.46
2019-02-17T14:34:01.303Z,19.40
2019-02-17T14:37:04.399Z,19.49
2019-02-17T14:40:07.598Z,19.43
2019-02-17T14:43:10.752Z,19.13
2019-02-17T14:46:13.943Z,19.30
2019-02-17T14:49:18.063Z,19.32
2019-02-17T14:52:21.155Z,19.13
2019-02-17T14:55:24.376Z,18.84
2019-02-17T14:58:27.543Z,18.64
2019-02-17T15:01:30.635Z,18.40
2019-02-17T15:04:33.727Z,18.28
2019-02-17T15:07:36.917Z,18.11
2019-02-17T15:10:40.016Z,17.88
2019-02-17T15:13:43.091Z,17.81
2019-02-17T15:16:46.229Z,17.69
2019-02-17T15:19:49.397Z,17.48
2019-02-17T15:22:52.570Z,17.36
2019-02-17T15:25:55.784Z,17.24
2019-02-17T15:28:59.007Z,17.28
2019-02-17T15:32:02.217Z,17.11
2019-02-17T15:35:05.445Z,17.00
2019-02-17T15:38:08.565Z,16.86
2019-02-17T15:41:11.847Z,16.83
2019-02-17T15:44:14.961Z,16.69
2019-02-17T15:47:18.185Z,16.57
2019-02-17T15:50:21.366Z,16.47
2019-02-17T15:53:24.563Z,16.43
2019-02-17T15:56:27.693Z,16.42
2019-02-17T15:59:30.875Z,16.26
2019-02-17T16:02:33.966Z,16.21
2019-02-17T16:05:37.072Z,16.09
2019-02-17T16:08:40.183Z,15.96
2019-02-17T16:11:43.265Z,15.80
2019-02-17T16:14:46.338Z,15.75
2019-02-17T16:17:49.503Z,15.64
2019-02-17T16:20:52.688Z,15.52
2019-02-17T16:23:55.874Z,15.49
2019-02-17T16:26:59.123Z,15.33
2019-02-17T16:30:02.295Z,15.17
2019-02-17T16:33:05.465Z,15.03
2019-02-17T16:36:08.671Z,14.88
2019-02-17T16:39:13.119Z,14.78
2019-02-17T16:42:16.239Z,14.73
2019-02-17T16:45:19.554Z,14.67
2019-02-17T16:48:22.761Z,14.54
2019-02-17T16:51:25.860Z,14.42
2019-02-17T16:54:29.063Z,14.32
2019-02-17T16:57:32.284Z,14.26
2019-02-17T17:00:35.546Z,14.20
2019-02-17T17:03:38.635Z,14.12
2019-02-17T17:06:41.827Z,14.03
2019-02-17T17:09:45.101Z,13.94
2019-02-17T17:12:48.276Z,13.82
2019-02-17T17:15:51.427Z,13.74
2019-02-17T17:18:54.596Z,13.63
2019-02-17T17:21:57.675Z,13.52
2019-02-17T17:25:00.783Z,13.33
2019-02-17T17:28:04.607Z,13.15
2019-02-17T17:31:07.795Z,12.91
2019-02-17T17:34:11.090Z,12.68
2019-02-17T17:37:14.182Z,12.48
2019-02-17T17:40:17.414Z,12.33
2019-02-17T17:43:20.582Z,12.20
2019-02-17T17:46:23.711Z,11.89
2019-02-17T17:49:26.835Z,11.82
2019-02-17T17:52:29.999Z,11.72
2019-02-17T17:55:33.148Z,11.53
2019-02-17T17:58:36.379Z,11.37
2019-02-17T18:01:39.575Z,11.26
2019-02-17T18:04:42.742Z,11.19
2019-02-17T18:07:45.907Z,11.03
2019-02-17T18:10:49.004Z,10.84
2019-02-17T18:13:52.116Z,10.73
2019-02-17T18:16:55.319Z,10.65
2019-02-17T18:19:58.516Z,10.52
2019-02-17T18:23:01.693Z,10.41
2019-02-17T18:26:04.911Z,10.35
2019-02-17T18:29:08.078Z,10.28
2019-02-17T18:32:11.215Z,10.15
2019-02-17T18:35:19.624Z,10.06
2019-02-17T18:38:17.770Z,9.94
2019-02-17T18:41:26.636Z,9.83
2019-02-17T18:44:29.890Z,9.72
2019-02-17T18:47:33.105Z,9.68
2019-02-17T18:50:36.218Z,9.62
2019-02-17T18:53:39.372Z,9.50
2019-02-17T18:56:42.483Z,9.39
2019-02-17T18:59:45.675Z,9.39
2019-02-17T19:02:48.845Z,9.32
2019-02-17T19:05:51.943Z,9.25
2019-02-17T19:08:55.180Z,9.15
2019-02-17T19:11:58.263Z,9.11
2019-02-17T19:15:01.422Z,9.08
2019-02-17T19:18:04.522Z,9.10
2019-02-17T19:21:07.739Z,9.23
2019-02-17T19:24:10.857Z,9.26
2019-02-17T19:27:14.003Z,9.36
2019-02-17T19:30:17.215Z,9.46
2019-02-17T19:33:20.623Z,9.64
2019-02-17T19:36:23.831Z,9.65
2019-02-17T19:39:26.958Z,9.73
2019-02-17T19:42:30.128Z,9.77
2019-02-17T19:45:34.182Z,9.80
2019-02-17T19:48:37.312Z,9.84
2019-02-17T19:51:40.497Z,9.85
2019-02-17T19:54:43.694Z,9.85
2019-02-17T19:57:47.055Z,9.79
2019-02-17T20:00:49.986Z,9.72
2019-02-17T20:03:58.390Z,9.61
2019-02-17T20:07:01.687Z,9.58
2019-02-17T20:10:05.183Z,9.50
2019-02-17T20:13:08.570Z,9.37
2019-02-17T20:16:11.498Z,9.28
2019-02-17T20:19:14.627Z,9.30
2019-02-17T20:22:17.859Z,9.18
2019-02-17T20:25:21.054Z,9.05
2019-02-17T20:28:35.683Z,8.93
2019-02-17T20:31:27.438Z,8.83
2019-02-17T20:34:30.634Z,8.76
2019-02-17T20:37:33.843Z,8.70
2019-02-17T20:40:37.023Z,8.66
2019-02-17T20:43:40.232Z,8.60
2019-02-17T20:46:43.452Z,8.50
2019-02-17T20:49:46.555Z,8.42
2019-02-17T20:52:49.704Z,8.31
2019-02-17T20:55:52.776Z,8.28
2019-02-17T20:58:55.899Z,8.26
2019-02-17T21:01:59.076Z,8.24
2019-02-17T21:05:02.270Z,8.17
2019-02-17T21:08:05.462Z,8.13
2019-02-17T21:11:08.551Z,8.07
2019-02-17T21:14:11.629Z,7.99
2019-02-17T21:17:14.692Z,7.97
2019-02-17T21:20:18.298Z,8.08
2019-02-17T21:23:21.409Z,7.95
2019-02-17T21:26:26.424Z,7.94
2019-02-17T21:29:27.824Z,7.97
2019-02-17T21:32:31.059Z,7.88
2019-02-17T21:35:34.221Z,7.78
2019-02-17T21:38:37.406Z,7.68
2019-02-17T21:41:40.527Z,7.58
2019-02-17T21:44:43.700Z,7.48
2019-02-17T21:47:46.811Z,7.44
2019-02-17T21:50:49.982Z,7.30
2019-02-17T21:53:53.169Z,7.19
2019-02-17T21:56:56.274Z,7.20
2019-02-17T21:59:59.442Z,7.19
2019-02-17T22:03:02.578Z,7.19
2019-02-17T22:06:05.779Z,7.15
2019-02-17T22:09:08.948Z,7.13
2019-02-17T22:12:12.155Z,7.05
2019-02-17T22:15:15.595Z,6.96
2019-02-17T22:18:18.735Z,6.93
2019-02-17T22:21:22.039Z,6.93
2019-02-17T22:24:25.124Z,6.90
2019-02-17T22:27:28.313Z,6.83
2019-02-17T22:30:31.436Z,6.81
2019-02-17T22:33:34.604Z,6.74
2019-02-17T22:36:43.685Z,6.68
2019-02-17T22:39:41.008Z,6.64
2019-02-17T22:42:44.175Z,6.60
2019-02-17T22:45:47.462Z,6.55
2019-02-17T22:48:51.471Z,6.57
2019-02-17T22:51:54.586Z,6.56
2019-02-17T22:54:57.694Z,6.54
2019-02-17T22:58:00.885Z,6.50
2019-02-17T23:01:06.369Z,6.50
2019-02-17T23:04:09.495Z,6.41
2019-02-17T23:07:12.609Z,6.29
2019-02-17T23:10:15.722Z,6.25
2019-02-17T23:13:18.899Z,6.13
2019-02-17T23:19:21.501Z,6.12
2019-02-17T23:22:24.783Z,6.05
2019-02-17T23:25:27.891Z,5.98
2019-02-17T23:28:31.101Z,5.94
2019-02-17T23:31:34.371Z,5.94
2019-02-17T23:34:37.520Z,5.91
2019-02-17T23:37:40.778Z,5.82
2019-02-17T23:40:43.992Z,5.84
2019-02-17T23:43:47.206Z,5.76
2019-02-17T23:46:50.359Z,5.63
2019-02-17T23:49:53.555Z,5.54
2019-02-17T23:52:56.758Z,5.56
2019-02-17T23:55:59.939Z,5.47
2019-02-17T23:59:03.246Z,5.46
